sensor_id;sensor_type;location;lat;lon;timestamp;temperature;humidity
19483;DHT22;9882;51.166;6.992;2022-08-21T00:01:27;21.80;99.90
19483;DHT22;9882;51.166;6.992;2022-08-21T00:03:58;21.80;99.90
19483;DHT22;9882;51.166;6.992;2022-08-21T00:06:26;21.70;99.90
19483;DHT22;9882;51.166;6.992;2022-08-21T00:08:57;21.70;99.90
19483;DHT22;9882;51.166;6.992;2022-08-21T00:11:28;21.70;99.90
19483;DHT22;9882;51.166;6.992;2022-08-21T00:13:56;21.70;99.90
19483;DHT22;9882;51.166;6.992;2022-08-21T00:16:25;21.60;99.90
19483;DHT22;9882;51.166;6.992;2022-08-21T00:18:54;21.60;99.90
19483;DHT22;9882;51.166;6.992;2022-08-21T00:21:24;21.60;99.90
19483;DHT22;9882;51.166;6.992;2022-08-21T00:23:53;21.60;99.90
19483;DHT22;9882;51.166;6.992;2022-08-21T00:26:22;21.50;99.90
19483;DHT22;9882;51.166;6.992;2022-08-21T00:28:50;21.50;99.90
19483;DHT22;9882;51.166;6.992;2022-08-21T00:31:19;21.50;99.90
19483;DHT22;9882;51.166;6.992;2022-08-21T00:33:47;21.40;99.90
19483;DHT22;9882;51.166;6.992;2022-08-21T00:36:16;21.40;99.90
19483;DHT22;9882;51.166;6.992;2022-08-21T00:38:47;21.40;99.90
19483;DHT22;9882;51.166;6.992;2022-08-21T00:41:18;21.30;99.90
19483;DHT22;9882;51.166;6.992;2022-08-21T00:43:47;21.30;99.90
19483;DHT22;9882;51.166;6.992;2022-08-21T00:46:19;21.30;99.90
19483;DHT22;9882;51.166;6.992;2022-08-21T00:48:47;21.20;99.90
19483;DHT22;9882;51.166;6.992;2022-08-21T00:51:20;21.20;99.90
19483;DHT22;9882;51.166;6.992;2022-08-21T00:53:59;21.10;99.90
19483;DHT22;9882;51.166;6.992;2022-08-21T00:56:31;21.10;99.90
19483;DHT22;9882;51.166;6.992;2022-08-21T00:59:00;21.10;99.90
19483;DHT22;9882;51.166;6.992;2022-08-21T01:01:29;21.10;99.90
19483;DHT22;9882;51.166;6.992;2022-08-21T01:03:58;21.10;99.90
19483;DHT22;9882;51.166;6.992;2022-08-21T01:06:27;21.00;99.90
19483;DHT22;9882;51.166;6.992;2022-08-21T01:08:57;21.00;99.90
19483;DHT22;9882;51.166;6.992;2022-08-21T01:11:26;21.00;99.90
19483;DHT22;9882;51.166;6.992;2022-08-21T01:13:54;20.90;99.90
19483;DHT22;9882;51.166;6.992;2022-08-21T01:16:23;20.90;99.90
19483;DHT22;9882;51.166;6.992;2022-08-21T01:18:52;20.90;99.90
19483;DHT22;9882;51.166;6.992;2022-08-21T01:21:24;20.80;99.90
19483;DHT22;9882;51.166;6.992;2022-08-21T01:23:54;20.80;99.90
19483;DHT22;9882;51.166;6.992;2022-08-21T01:26:26;20.80;99.90
19483;DHT22;9882;51.166;6.992;2022-08-21T01:28:58;20.80;99.90
19483;DHT22;9882;51.166;6.992;2022-08-21T01:31:29;20.80;99.90
19483;DHT22;9882;51.166;6.992;2022-08-21T01:33:59;20.70;99.90
19483;DHT22;9882;51.166;6.992;2022-08-21T01:36:29;20.70;99.90
19483;DHT22;9882;51.166;6.992;2022-08-21T01:38:58;20.70;99.90
19483;DHT22;9882;51.166;6.992;2022-08-21T01:41:27;20.60;99.90
19483;DHT22;9882;51.166;6.992;2022-08-21T01:43:55;20.60;99.90
19483;DHT22;9882;51.166;6.992;2022-08-21T01:46:24;20.60;99.90
19483;DHT22;9882;51.166;6.992;2022-08-21T01:48:53;20.60;99.90
19483;DHT22;9882;51.166;6.992;2022-08-21T01:51:22;20.50;99.90
19483;DHT22;9882;51.166;6.992;2022-08-21T01:53:52;20.50;99.90
19483;DHT22;9882;51.166;6.992;2022-08-21T01:56:20;20.50;99.90
19483;DHT22;9882;51.166;6.992;2022-08-21T01:58:50;20.50;99.90
19483;DHT22;9882;51.166;6.992;2022-08-21T02:01:18;20.40;99.90
19483;DHT22;9882;51.166;6.992;2022-08-21T02:03:47;20.40;99.90
19483;DHT22;9882;51.166;6.992;2022-08-21T02:06:16;20.40;99.90
19483;DHT22;9882;51.166;6.992;2022-08-21T02:08:45;20.30;99.90
19483;DHT22;9882;51.166;6.992;2022-08-21T02:11:15;20.30;99.90
19483;DHT22;9882;51.166;6.992;2022-08-21T02:13:44;20.20;99.90
19483;DHT22;9882;51.166;6.992;2022-08-21T02:16:13;20.20;99.90
19483;DHT22;9882;51.166;6.992;2022-08-21T02:18:42;20.10;99.90
19483;DHT22;9882;51.166;6.992;2022-08-21T02:21:11;20.10;99.90
19483;DHT22;9882;51.166;6.992;2022-08-21T02:23:40;20.10;99.90
19483;DHT22;9882;51.166;6.992;2022-08-21T02:26:09;20.00;99.90
19483;DHT22;9882;51.166;6.992;2022-08-21T02:28:40;20.00;99.90
19483;DHT22;9882;51.166;6.992;2022-08-21T02:31:09;20.00;99.90
19483;DHT22;9882;51.166;6.992;2022-08-21T02:33:38;19.90;99.90
19483;DHT22;9882;51.166;6.992;2022-08-21T02:36:08;19.90;99.90
19483;DHT22;9882;51.166;6.992;2022-08-21T02:38:40;19.90;99.90
19483;DHT22;9882;51.166;6.992;2022-08-21T02:41:12;19.90;99.90
19483;DHT22;9882;51.166;6.992;2022-08-21T02:43:43;19.90;99.90
19483;DHT22;9882;51.166;6.992;2022-08-21T02:46:14;19.90;99.90
19483;DHT22;9882;51.166;6.992;2022-08-21T02:48:43;19.80;99.90
19483;DHT22;9882;51.166;6.992;2022-08-21T02:51:15;19.80;99.90
19483;DHT22;9882;51.166;6.992;2022-08-21T02:53:46;19.80;99.90
19483;DHT22;9882;51.166;6.992;2022-08-21T02:56:17;19.80;99.90
19483;DHT22;9882;51.166;6.992;2022-08-21T02:58:49;19.80;99.90
19483;DHT22;9882;51.166;6.992;2022-08-21T03:01:19;19.80;99.90
19483;DHT22;9882;51.166;6.992;2022-08-21T03:03:48;19.80;99.90
19483;DHT22;9882;51.166;6.992;2022-08-21T03:06:21;19.80;99.90
19483;DHT22;9882;51.166;6.992;2022-08-21T03:08:50;19.70;99.90
19483;DHT22;9882;51.166;6.992;2022-08-21T03:11:19;19.70;99.90
19483;DHT22;9882;51.166;6.992;2022-08-21T03:13:49;19.70;99.90
19483;DHT22;9882;51.166;6.992;2022-08-21T03:16:18;19.70;99.90
19483;DHT22;9882;51.166;6.992;2022-08-21T03:18:47;19.70;99.90
19483;DHT22;9882;51.166;6.992;2022-08-21T03:21:16;19.70;99.90
19483;DHT22;9882;51.166;6.992;2022-08-21T03:23:46;19.60;99.90
19483;DHT22;9882;51.166;6.992;2022-08-21T03:26:14;19.60;99.90
19483;DHT22;9882;51.166;6.992;2022-08-21T03:28:43;19.60;99.90
19483;DHT22;9882;51.166;6.992;2022-08-21T03:31:14;19.60;99.90
19483;DHT22;9882;51.166;6.992;2022-08-21T03:33:43;19.60;99.90
19483;DHT22;9882;51.166;6.992;2022-08-21T03:36:12;19.50;99.90
19483;DHT22;9882;51.166;6.992;2022-08-21T03:38:40;19.50;99.90
19483;DHT22;9882;51.166;6.992;2022-08-21T03:41:09;19.50;99.90
19483;DHT22;9882;51.166;6.992;2022-08-21T03:43:38;19.40;99.90
19483;DHT22;9882;51.166;6.992;2022-08-21T03:46:07;19.40;99.90
19483;DHT22;9882;51.166;6.992;2022-08-21T03:48:37;19.40;99.90
19483;DHT22;9882;51.166;6.992;2022-08-21T03:51:06;19.30;99.90
19483;DHT22;9882;51.166;6.992;2022-08-21T03:53:35;19.40;99.90
19483;DHT22;9882;51.166;6.992;2022-08-21T03:56:04;19.40;99.90
19483;DHT22;9882;51.166;6.992;2022-08-21T03:58:33;19.30;99.90
19483;DHT22;9882;51.166;6.992;2022-08-21T04:01:06;19.40;99.90
19483;DHT22;9882;51.166;6.992;2022-08-21T04:03:37;19.30;99.90
19483;DHT22;9882;51.166;6.992;2022-08-21T04:06:07;19.30;99.90
19483;DHT22;9882;51.166;6.992;2022-08-21T04:08:35;19.30;99.90
19483;DHT22;9882;51.166;6.992;2022-08-21T04:11:05;19.20;99.90
19483;DHT22;9882;51.166;6.992;2022-08-21T04:13:34;19.20;99.90
19483;DHT22;9882;51.166;6.992;2022-08-21T04:16:03;19.20;99.90
19483;DHT22;9882;51.166;6.992;2022-08-21T04:18:32;19.20;99.90
19483;DHT22;9882;51.166;6.992;2022-08-21T04:21:02;19.10;99.90
19483;DHT22;9882;51.166;6.992;2022-08-21T04:23:31;19.10;99.90
19483;DHT22;9882;51.166;6.992;2022-08-21T04:26:00;19.20;99.90
19483;DHT22;9882;51.166;6.992;2022-08-21T04:28:29;19.10;99.90
19483;DHT22;9882;51.166;6.992;2022-08-21T04:30:57;19.10;99.90
19483;DHT22;9882;51.166;6.992;2022-08-21T04:33:26;19.10;99.90
19483;DHT22;9882;51.166;6.992;2022-08-21T04:35:55;19.10;99.90
19483;DHT22;9882;51.166;6.992;2022-08-21T04:38:25;19.00;99.90
19483;DHT22;9882;51.166;6.992;2022-08-21T04:40:56;19.10;99.90
19483;DHT22;9882;51.166;6.992;2022-08-21T04:43:25;19.00;99.90
19483;DHT22;9882;51.166;6.992;2022-08-21T04:45:53;19.00;99.90
19483;DHT22;9882;51.166;6.992;2022-08-21T04:48:22;19.00;99.90
19483;DHT22;9882;51.166;6.992;2022-08-21T04:50:56;19.00;99.90
19483;DHT22;9882;51.166;6.992;2022-08-21T04:53:35;19.00;99.90
19483;DHT22;9882;51.166;6.992;2022-08-21T04:56:09;19.00;99.90
19483;DHT22;9882;51.166;6.992;2022-08-21T04:58:39;18.90;99.90
19483;DHT22;9882;51.166;6.992;2022-08-21T05:01:14;18.90;99.90
19483;DHT22;9882;51.166;6.992;2022-08-21T05:03:43;18.90;99.90
19483;DHT22;9882;51.166;6.992;2022-08-21T05:06:13;18.90;99.90
19483;DHT22;9882;51.166;6.992;2022-08-21T05:08:46;18.90;99.90
19483;DHT22;9882;51.166;6.992;2022-08-21T05:11:15;18.90;99.90
19483;DHT22;9882;51.166;6.992;2022-08-21T05:13:44;18.90;99.90
19483;DHT22;9882;51.166;6.992;2022-08-21T05:16:13;18.90;99.90
19483;DHT22;9882;51.166;6.992;2022-08-21T05:18:43;18.90;99.90
19483;DHT22;9882;51.166;6.992;2022-08-21T05:21:12;18.90;99.90
19483;DHT22;9882;51.166;6.992;2022-08-21T05:23:41;18.80;99.90
19483;DHT22;9882;51.166;6.992;2022-08-21T05:26:11;18.80;99.90
19483;DHT22;9882;51.166;6.992;2022-08-21T05:28:39;18.70;99.90
19483;DHT22;9882;51.166;6.992;2022-08-21T05:31:08;18.70;99.90
19483;DHT22;9882;51.166;6.992;2022-08-21T05:33:37;18.70;99.90
19483;DHT22;9882;51.166;6.992;2022-08-21T05:36:06;18.70;99.90
19483;DHT22;9882;51.166;6.992;2022-08-21T05:38:35;18.60;99.90
19483;DHT22;9882;51.166;6.992;2022-08-21T05:41:03;18.60;99.90
19483;DHT22;9882;51.166;6.992;2022-08-21T05:43:33;18.60;99.90
19483;DHT22;9882;51.166;6.992;2022-08-21T05:46:04;18.60;99.90
19483;DHT22;9882;51.166;6.992;2022-08-21T05:48:36;18.60;99.90
19483;DHT22;9882;51.166;6.992;2022-08-21T05:51:07;18.50;99.90
19483;DHT22;9882;51.166;6.992;2022-08-21T05:53:42;18.40;99.90
19483;DHT22;9882;51.166;6.992;2022-08-21T05:56:20;18.40;99.90
19483;DHT22;9882;51.166;6.992;2022-08-21T05:58:51;18.50;99.90
19483;DHT22;9882;51.166;6.992;2022-08-21T06:01:22;18.50;99.90
19483;DHT22;9882;51.166;6.992;2022-08-21T06:03:51;18.40;99.90
19483;DHT22;9882;51.166;6.992;2022-08-21T06:06:19;18.40;99.90
19483;DHT22;9882;51.166;6.992;2022-08-21T06:08:48;18.40;99.90
19483;DHT22;9882;51.166;6.992;2022-08-21T06:11:17;18.50;99.90
19483;DHT22;9882;51.166;6.992;2022-08-21T06:13:47;18.30;99.90
19483;DHT22;9882;51.166;6.992;2022-08-21T06:16:17;18.30;99.90
19483;DHT22;9882;51.166;6.992;2022-08-21T06:18:50;18.20;99.90
19483;DHT22;9882;51.166;6.992;2022-08-21T06:21:19;18.30;99.90
19483;DHT22;9882;51.166;6.992;2022-08-21T06:23:51;18.30;99.90
19483;DHT22;9882;51.166;6.992;2022-08-21T06:26:23;18.30;99.90
19483;DHT22;9882;51.166;6.992;2022-08-21T06:28:52;18.20;99.90
19483;DHT22;9882;51.166;6.992;2022-08-21T06:31:24;18.00;99.90
19483;DHT22;9882;51.166;6.992;2022-08-21T06:33:54;18.10;99.90
19483;DHT22;9882;51.166;6.992;2022-08-21T06:36:23;17.90;99.90
19483;DHT22;9882;51.166;6.992;2022-08-21T06:41:41;17.80;99.90
19483;DHT22;9882;51.166;6.992;2022-08-21T06:44:10;17.80;99.90
19483;DHT22;9882;51.166;6.992;2022-08-21T06:46:40;17.60;99.90
19483;DHT22;9882;51.166;6.992;2022-08-21T06:49:09;17.80;99.90
19483;DHT22;9882;51.166;6.992;2022-08-21T06:51:37;17.80;99.90
19483;DHT22;9882;51.166;6.992;2022-08-21T06:54:06;18.00;99.90
19483;DHT22;9882;51.166;6.992;2022-08-21T06:56:36;17.70;99.90
19483;DHT22;9882;51.166;6.992;2022-08-21T06:59:05;17.80;99.90
19483;DHT22;9882;51.166;6.992;2022-08-21T07:01:34;17.60;99.90
19483;DHT22;9882;51.166;6.992;2022-08-21T07:04:07;17.40;99.90
19483;DHT22;9882;51.166;6.992;2022-08-21T07:06:36;17.50;99.90
19483;DHT22;9882;51.166;6.992;2022-08-21T07:09:05;17.50;99.90
19483;DHT22;9882;51.166;6.992;2022-08-21T07:11:35;17.70;99.90
19483;DHT22;9882;51.166;6.992;2022-08-21T07:14:04;17.80;99.90
19483;DHT22;9882;51.166;6.992;2022-08-21T07:16:33;17.90;99.90
19483;DHT22;9882;51.166;6.992;2022-08-21T07:19:02;17.80;99.90
19483;DHT22;9882;51.166;6.992;2022-08-21T07:21:32;17.70;99.90
19483;DHT22;9882;51.166;6.992;2022-08-21T07:24:01;17.80;99.90
19483;DHT22;9882;51.166;6.992;2022-08-21T07:26:32;17.80;99.90
19483;DHT22;9882;51.166;6.992;2022-08-21T07:29:04;17.60;99.90
19483;DHT22;9882;51.166;6.992;2022-08-21T07:31:32;17.70;99.90
19483;DHT22;9882;51.166;6.992;2022-08-21T07:34:01;17.60;99.90
19483;DHT22;9882;51.166;6.992;2022-08-21T07:36:29;17.60;99.90
19483;DHT22;9882;51.166;6.992;2022-08-21T07:38:59;17.70;99.90
19483;DHT22;9882;51.166;6.992;2022-08-21T07:41:29;17.70;99.90
19483;DHT22;9882;51.166;6.992;2022-08-21T07:43:59;17.70;99.90
19483;DHT22;9882;51.166;6.992;2022-08-21T07:46:28;17.80;99.90
19483;DHT22;9882;51.166;6.992;2022-08-21T07:49:04;17.70;99.90
19483;DHT22;9882;51.166;6.992;2022-08-21T07:51:33;17.70;99.90
19483;DHT22;9882;51.166;6.992;2022-08-21T07:54:03;17.80;99.90
19483;DHT22;9882;51.166;6.992;2022-08-21T07:56:32;17.90;99.90
19483;DHT22;9882;51.166;6.992;2022-08-21T07:59:00;17.90;99.90
19483;DHT22;9882;51.166;6.992;2022-08-21T08:01:29;18.00;99.90
19483;DHT22;9882;51.166;6.992;2022-08-21T08:03:58;18.30;99.90
19483;DHT22;9882;51.166;6.992;2022-08-21T08:06:27;18.30;99.90
19483;DHT22;9882;51.166;6.992;2022-08-21T08:08:56;18.40;99.90
19483;DHT22;9882;51.166;6.992;2022-08-21T08:11:26;18.30;99.90
19483;DHT22;9882;51.166;6.992;2022-08-21T08:13:54;18.30;99.90
19483;DHT22;9882;51.166;6.992;2022-08-21T08:16:24;18.40;99.90
19483;DHT22;9882;51.166;6.992;2022-08-21T08:18:55;18.40;99.90
19483;DHT22;9882;51.166;6.992;2022-08-21T08:21:24;18.40;99.90
19483;DHT22;9882;51.166;6.992;2022-08-21T08:23:52;18.40;99.90
19483;DHT22;9882;51.166;6.992;2022-08-21T08:26:21;18.50;99.90
19483;DHT22;9882;51.166;6.992;2022-08-21T08:28:51;18.60;99.90
19483;DHT22;9882;51.166;6.992;2022-08-21T08:31:20;18.70;99.90
19483;DHT22;9882;51.166;6.992;2022-08-21T08:33:51;18.80;99.90
19483;DHT22;9882;51.166;6.992;2022-08-21T08:36:20;18.80;99.90
19483;DHT22;9882;51.166;6.992;2022-08-21T08:38:59;19.00;99.90
19483;DHT22;9882;51.166;6.992;2022-08-21T08:41:29;18.80;99.90
19483;DHT22;9882;51.166;6.992;2022-08-21T08:44:02;18.90;99.90
19483;DHT22;9882;51.166;6.992;2022-08-21T08:46:34;19.10;99.90
19483;DHT22;9882;51.166;6.992;2022-08-21T08:49:11;19.30;99.90
19483;DHT22;9882;51.166;6.992;2022-08-21T08:51:46;19.20;99.90
19483;DHT22;9882;51.166;6.992;2022-08-21T08:54:19;19.30;99.90
19483;DHT22;9882;51.166;6.992;2022-08-21T08:56:51;19.40;99.90
19483;DHT22;9882;51.166;6.992;2022-08-21T08:59:27;19.20;99.90
19483;DHT22;9882;51.166;6.992;2022-08-21T09:01:58;19.30;99.90
19483;DHT22;9882;51.166;6.992;2022-08-21T09:04:27;19.40;99.90
19483;DHT22;9882;51.166;6.992;2022-08-21T09:07:06;19.80;99.90
19483;DHT22;9882;51.166;6.992;2022-08-21T09:09:48;19.70;99.90
19483;DHT22;9882;51.166;6.992;2022-08-21T09:12:28;19.70;99.90
19483;DHT22;9882;51.166;6.992;2022-08-21T09:15:09;19.80;99.90
19483;DHT22;9882;51.166;6.992;2022-08-21T09:20:47;20.00;99.90
19483;DHT22;9882;51.166;6.992;2022-08-21T09:23:36;20.10;99.90
19483;DHT22;9882;51.166;6.992;2022-08-21T09:26:13;19.90;99.90
19483;DHT22;9882;51.166;6.992;2022-08-21T09:28:43;20.00;99.90
19483;DHT22;9882;51.166;6.992;2022-08-21T09:31:21;19.90;99.90
19483;DHT22;9882;51.166;6.992;2022-08-21T09:33:57;20.00;99.90
19483;DHT22;9882;51.166;6.992;2022-08-21T09:36:35;20.30;99.90
19483;DHT22;9882;51.166;6.992;2022-08-21T09:39:05;20.20;99.90
19483;DHT22;9882;51.166;6.992;2022-08-21T09:41:35;20.40;99.90
19483;DHT22;9882;51.166;6.992;2022-08-21T09:44:06;20.50;99.90
19483;DHT22;9882;51.166;6.992;2022-08-21T09:46:36;20.70;99.90
19483;DHT22;9882;51.166;6.992;2022-08-21T09:49:05;20.70;99.90
19483;DHT22;9882;51.166;6.992;2022-08-21T09:51:36;20.80;99.90
19483;DHT22;9882;51.166;6.992;2022-08-21T09:54:14;20.70;99.90
19483;DHT22;9882;51.166;6.992;2022-08-21T09:56:55;20.60;99.90
19483;DHT22;9882;51.166;6.992;2022-08-21T09:59:43;20.70;99.90
19483;DHT22;9882;51.166;6.992;2022-08-21T10:02:23;20.70;99.90
19483;DHT22;9882;51.166;6.992;2022-08-21T10:04:55;21.00;99.90
19483;DHT22;9882;51.166;6.992;2022-08-21T10:07:27;21.20;99.90
19483;DHT22;9882;51.166;6.992;2022-08-21T10:10:06;21.00;99.90
19483;DHT22;9882;51.166;6.992;2022-08-21T10:12:45;21.20;99.90
19483;DHT22;9882;51.166;6.992;2022-08-21T10:15:21;21.20;99.90
19483;DHT22;9882;51.166;6.992;2022-08-21T10:18:01;21.40;99.90
19483;DHT22;9882;51.166;6.992;2022-08-21T10:20:37;21.30;99.90
19483;DHT22;9882;51.166;6.992;2022-08-21T10:23:25;21.50;99.90
19483;DHT22;9882;51.166;6.992;2022-08-21T10:26:07;21.40;99.90
19483;DHT22;9882;51.166;6.992;2022-08-21T10:28:49;21.30;99.90
19483;DHT22;9882;51.166;6.992;2022-08-21T10:31:28;21.40;99.90
19483;DHT22;9882;51.166;6.992;2022-08-21T10:34:15;21.50;99.90
19483;DHT22;9882;51.166;6.992;2022-08-21T10:37:01;21.70;99.90
19483;DHT22;9882;51.166;6.992;2022-08-21T10:39:35;21.80;99.90
19483;DHT22;9882;51.166;6.992;2022-08-21T10:42:21;21.80;99.90
19483;DHT22;9882;51.166;6.992;2022-08-21T10:45:06;21.90;99.90
19483;DHT22;9882;51.166;6.992;2022-08-21T10:47:42;22.00;99.90
19483;DHT22;9882;51.166;6.992;2022-08-21T10:50:23;21.90;99.90
19483;DHT22;9882;51.166;6.992;2022-08-21T10:53:12;21.90;99.90
19483;DHT22;9882;51.166;6.992;2022-08-21T10:55:51;21.90;99.90
19483;DHT22;9882;51.166;6.992;2022-08-21T10:58:28;21.90;99.90
19483;DHT22;9882;51.166;6.992;2022-08-21T11:01:00;22.20;99.90
19483;DHT22;9882;51.166;6.992;2022-08-21T11:03:34;22.20;99.90
19483;DHT22;9882;51.166;6.992;2022-08-21T11:06:11;22.20;99.90
19483;DHT22;9882;51.166;6.992;2022-08-21T11:08:43;22.10;99.90
19483;DHT22;9882;51.166;6.992;2022-08-21T11:11:15;22.40;99.90
19483;DHT22;9882;51.166;6.992;2022-08-21T11:13:49;22.30;99.90
19483;DHT22;9882;51.166;6.992;2022-08-21T11:16:25;22.30;99.90
19483;DHT22;9882;51.166;6.992;2022-08-21T11:19:00;22.30;99.90
19483;DHT22;9882;51.166;6.992;2022-08-21T11:21:39;22.30;99.90
19483;DHT22;9882;51.166;6.992;2022-08-21T11:24:19;22.60;99.90
19483;DHT22;9882;51.166;6.992;2022-08-21T11:26:53;22.50;99.90
19483;DHT22;9882;51.166;6.992;2022-08-21T11:29:28;22.60;99.90
19483;DHT22;9882;51.166;6.992;2022-08-21T11:32:08;22.60;99.90
19483;DHT22;9882;51.166;6.992;2022-08-21T11:34:50;22.60;99.90
19483;DHT22;9882;51.166;6.992;2022-08-21T11:37:47;22.60;99.90
19483;DHT22;9882;51.166;6.992;2022-08-21T11:40:26;22.70;99.90
19483;DHT22;9882;51.166;6.992;2022-08-21T11:43:04;22.70;99.90
19483;DHT22;9882;51.166;6.992;2022-08-21T11:45:40;22.80;99.90
19483;DHT22;9882;51.166;6.992;2022-08-21T11:48:15;22.90;99.90
19483;DHT22;9882;51.166;6.992;2022-08-21T11:50:48;22.80;99.90
19483;DHT22;9882;51.166;6.992;2022-08-21T11:53:23;22.90;99.90
19483;DHT22;9882;51.166;6.992;2022-08-21T11:55:59;23.10;99.90
19483;DHT22;9882;51.166;6.992;2022-08-21T11:58:31;22.80;99.90
19483;DHT22;9882;51.166;6.992;2022-08-21T12:01:04;22.90;99.90
19483;DHT22;9882;51.166;6.992;2022-08-21T12:03:36;22.80;99.90
19483;DHT22;9882;51.166;6.992;2022-08-21T12:06:07;23.00;99.90
19483;DHT22;9882;51.166;6.992;2022-08-21T12:08:39;23.20;99.90
19483;DHT22;9882;51.166;6.992;2022-08-21T12:11:20;23.20;99.90
19483;DHT22;9882;51.166;6.992;2022-08-21T12:13:57;23.30;99.90
19483;DHT22;9882;51.166;6.992;2022-08-21T12:16:30;23.30;99.90
19483;DHT22;9882;51.166;6.992;2022-08-21T12:19:05;23.50;99.90
19483;DHT22;9882;51.166;6.992;2022-08-21T12:21:46;23.60;99.90
19483;DHT22;9882;51.166;6.992;2022-08-21T12:24:20;23.70;99.90
19483;DHT22;9882;51.166;6.992;2022-08-21T12:26:51;23.60;99.90
19483;DHT22;9882;51.166;6.992;2022-08-21T12:29:25;23.60;99.90
19483;DHT22;9882;51.166;6.992;2022-08-21T12:31:57;23.40;99.90
19483;DHT22;9882;51.166;6.992;2022-08-21T12:34:32;23.30;99.90
19483;DHT22;9882;51.166;6.992;2022-08-21T12:37:04;23.40;99.90
19483;DHT22;9882;51.166;6.992;2022-08-21T12:39:38;23.70;99.90
19483;DHT22;9882;51.166;6.992;2022-08-21T12:42:16;23.80;99.90
19483;DHT22;9882;51.166;6.992;2022-08-21T12:44:49;24.00;99.90
19483;DHT22;9882;51.166;6.992;2022-08-21T12:47:27;24.10;99.90
19483;DHT22;9882;51.166;6.992;2022-08-21T12:50:00;24.20;99.90
19483;DHT22;9882;51.166;6.992;2022-08-21T12:52:34;24.20;99.90
19483;DHT22;9882;51.166;6.992;2022-08-21T12:55:11;24.10;99.90
19483;DHT22;9882;51.166;6.992;2022-08-21T12:57:40;24.10;99.90
19483;DHT22;9882;51.166;6.992;2022-08-21T13:00:11;24.40;99.90
19483;DHT22;9882;51.166;6.992;2022-08-21T13:02:47;24.30;99.90
19483;DHT22;9882;51.166;6.992;2022-08-21T13:05:28;24.20;99.90
19483;DHT22;9882;51.166;6.992;2022-08-21T13:07:58;24.40;99.90
19483;DHT22;9882;51.166;6.992;2022-08-21T13:10:30;24.40;99.90
19483;DHT22;9882;51.166;6.992;2022-08-21T13:13:02;24.30;99.90
19483;DHT22;9882;51.166;6.992;2022-08-21T13:15:34;24.40;99.70
19483;DHT22;9882;51.166;6.992;2022-08-21T13:18:05;24.40;99.30
19483;DHT22;9882;51.166;6.992;2022-08-21T13:20:39;24.50;99.90
19483;DHT22;9882;51.166;6.992;2022-08-21T13:23:20;24.40;99.90
19483;DHT22;9882;51.166;6.992;2022-08-21T13:25:51;24.50;99.40
19483;DHT22;9882;51.166;6.992;2022-08-21T13:28:20;24.40;97.80
19483;DHT22;9882;51.166;6.992;2022-08-21T13:30:51;24.70;99.10
19483;DHT22;9882;51.166;6.992;2022-08-21T13:33:22;24.70;99.90
19483;DHT22;9882;51.166;6.992;2022-08-21T13:36:00;24.90;96.50
19483;DHT22;9882;51.166;6.992;2022-08-21T13:38:32;25.30;98.40
19483;DHT22;9882;51.166;6.992;2022-08-21T13:41:06;25.40;97.60
19483;DHT22;9882;51.166;6.992;2022-08-21T13:43:37;25.80;97.60
19483;DHT22;9882;51.166;6.992;2022-08-21T13:46:13;26.30;98.40
19483;DHT22;9882;51.166;6.992;2022-08-21T13:48:43;26.00;95.20
19483;DHT22;9882;51.166;6.992;2022-08-21T13:51:12;26.10;95.60
19483;DHT22;9882;51.166;6.992;2022-08-21T13:53:46;26.00;95.50
19483;DHT22;9882;51.166;6.992;2022-08-21T13:56:24;25.70;95.20
19483;DHT22;9882;51.166;6.992;2022-08-21T13:58:57;25.80;95.40
19483;DHT22;9882;51.166;6.992;2022-08-21T14:01:28;26.10;92.80
19483;DHT22;9882;51.166;6.992;2022-08-21T14:04:02;26.00;89.90
19483;DHT22;9882;51.166;6.992;2022-08-21T14:06:35;26.90;89.30
19483;DHT22;9882;51.166;6.992;2022-08-21T14:09:09;27.80;93.00
19483;DHT22;9882;51.166;6.992;2022-08-21T14:11:40;27.90;91.60
19483;DHT22;9882;51.166;6.992;2022-08-21T14:14:16;26.90;90.40
19483;DHT22;9882;51.166;6.992;2022-08-21T14:16:54;26.90;89.80
19483;DHT22;9882;51.166;6.992;2022-08-21T14:19:26;27.30;90.50
19483;DHT22;9882;51.166;6.992;2022-08-21T14:21:55;28.00;92.20
19483;DHT22;9882;51.166;6.992;2022-08-21T14:24:29;28.90;87.60
19483;DHT22;9882;51.166;6.992;2022-08-21T14:27:02;28.60;83.10
19483;DHT22;9882;51.166;6.992;2022-08-21T14:29:34;29.20;87.80
19483;DHT22;9882;51.166;6.992;2022-08-21T14:32:12;29.00;84.60
19483;DHT22;9882;51.166;6.992;2022-08-21T14:34:41;29.40;87.50
19483;DHT22;9882;51.166;6.992;2022-08-21T14:37:10;30.00;83.40
19483;DHT22;9882;51.166;6.992;2022-08-21T14:39:38;29.30;77.50
19483;DHT22;9882;51.166;6.992;2022-08-21T14:42:12;29.60;83.00
19483;DHT22;9882;51.166;6.992;2022-08-21T14:44:40;29.40;77.30
19483;DHT22;9882;51.166;6.992;2022-08-21T14:47:09;29.60;82.00
19483;DHT22;9882;51.166;6.992;2022-08-21T14:49:38;29.10;79.00
19483;DHT22;9882;51.166;6.992;2022-08-21T14:52:07;29.80;78.40
19483;DHT22;9882;51.166;6.992;2022-08-21T14:54:35;30.30;75.10
19483;DHT22;9882;51.166;6.992;2022-08-21T14:57:06;30.50;78.50
19483;DHT22;9882;51.166;6.992;2022-08-21T14:59:38;29.50;75.70
19483;DHT22;9882;51.166;6.992;2022-08-21T15:02:08;30.70;77.30
19483;DHT22;9882;51.166;6.992;2022-08-21T15:04:37;30.60;72.70
19483;DHT22;9882;51.166;6.992;2022-08-21T15:07:05;30.60;71.10
19483;DHT22;9882;51.166;6.992;2022-08-21T15:09:34;29.50;74.10
19483;DHT22;9882;51.166;6.992;2022-08-21T15:12:04;30.10;78.70
19483;DHT22;9882;51.166;6.992;2022-08-21T15:14:36;29.80;74.60
19483;DHT22;9882;51.166;6.992;2022-08-21T15:17:09;30.40;75.00
19483;DHT22;9882;51.166;6.992;2022-08-21T15:19:39;30.50;72.30
19483;DHT22;9882;51.166;6.992;2022-08-21T15:22:08;31.00;73.60
19483;DHT22;9882;51.166;6.992;2022-08-21T15:24:37;30.00;71.70
19483;DHT22;9882;51.166;6.992;2022-08-21T15:27:08;30.10;81.20
19483;DHT22;9882;51.166;6.992;2022-08-21T15:29:37;30.40;71.90
19483;DHT22;9882;51.166;6.992;2022-08-21T15:32:24;30.10;74.10
19483;DHT22;9882;51.166;6.992;2022-08-21T15:34:55;31.00;69.00
19483;DHT22;9882;51.166;6.992;2022-08-21T15:37:25;30.20;69.80
19483;DHT22;9882;51.166;6.992;2022-08-21T15:39:53;30.20;69.50
19483;DHT22;9882;51.166;6.992;2022-08-21T15:42:23;30.60;70.30
19483;DHT22;9882;51.166;6.992;2022-08-21T15:44:54;30.40;72.70
19483;DHT22;9882;51.166;6.992;2022-08-21T15:47:27;30.60;76.10
19483;DHT22;9882;51.166;6.992;2022-08-21T15:49:56;30.50;75.40
19483;DHT22;9882;51.166;6.992;2022-08-21T15:52:25;29.90;70.90
19483;DHT22;9882;51.166;6.992;2022-08-21T15:54:54;30.80;75.90
19483;DHT22;9882;51.166;6.992;2022-08-21T15:57:23;29.70;74.50
19483;DHT22;9882;51.166;6.992;2022-08-21T15:59:56;30.10;75.80
19483;DHT22;9882;51.166;6.992;2022-08-21T16:02:31;30.00;70.70
19483;DHT22;9882;51.166;6.992;2022-08-21T16:04:59;29.20;71.70
19483;DHT22;9882;51.166;6.992;2022-08-21T16:07:30;29.50;72.60
19483;DHT22;9882;51.166;6.992;2022-08-21T16:10:00;29.50;74.10
19483;DHT22;9882;51.166;6.992;2022-08-21T16:12:32;28.60;82.40
19483;DHT22;9882;51.166;6.992;2022-08-21T16:15:05;27.80;77.00
19483;DHT22;9882;51.166;6.992;2022-08-21T16:17:41;27.90;80.00
19483;DHT22;9882;51.166;6.992;2022-08-21T16:20:17;28.20;79.00